createdAt,value
2023-11-29T00:02:05.393Z,67.19
2023-11-29T00:07:08.520Z,66.41
2023-11-29T00:12:11.607Z,67.39
2023-11-29T00:17:14.332Z,69.16
2023-11-29T00:22:17.070Z,69.07
2023-11-29T00:27:19.743Z,68.84
2023-11-29T00:32:23.210Z,69.48
2023-11-29T00:37:25.967Z,69.60
2023-11-29T00:42:28.732Z,70.17
2023-11-29T00:47:31.801Z,71.30
2023-11-29T00:52:34.758Z,71.01
2023-11-29T00:57:37.894Z,71.32
2023-11-29T01:02:40.891Z,72.87
2023-11-29T01:07:43.949Z,73.90
2023-11-29T01:12:46.672Z,73.08
2023-11-29T01:17:49.883Z,71.67
2023-11-29T01:22:52.745Z,72.19
2023-11-29T01:27:55.702Z,74.18
2023-11-29T01:32:58.778Z,71.59
2023-11-29T01:38:01.863Z,72.72
2023-11-29T01:43:05.002Z,70.03
2023-11-29T01:48:08.199Z,70.99
2023-11-29T01:53:13.481Z,70.83
2023-11-29T01:58:18.478Z,71.72
2023-11-29T02:03:22.623Z,71.69
2023-11-29T02:08:26.404Z,70.93
2023-11-29T02:13:29.364Z,71.17
2023-11-29T02:18:32.465Z,70.18
2023-11-29T02:23:46.614Z,69.98
2023-11-29T02:28:49.300Z,71.13
2023-11-29T02:33:52.188Z,71.49
2023-11-29T02:38:55.119Z,70.41
2023-11-29T02:43:58.097Z,70.79
2023-11-29T02:49:00.901Z,70.63
2023-11-29T02:54:04.078Z,69.77
2023-11-29T02:59:07.089Z,70.27
2023-11-29T03:04:10.035Z,69.40
2023-11-29T03:09:12.975Z,68.75
2023-11-29T03:14:16.242Z,69.73
2023-11-29T03:19:19.264Z,70.59
2023-11-29T03:24:22.078Z,70.53
2023-11-29T03:29:25.966Z,71.51
2023-11-29T03:34:29.266Z,71.58
2023-11-29T03:39:32.323Z,71.31
2023-11-29T03:44:36.421Z,71.57
2023-11-29T03:49:39.601Z,72.01
2023-11-29T03:54:42.293Z,73.72
2023-11-29T03:59:45.476Z,73.51
2023-11-29T04:04:48.755Z,73.16
2023-11-29T04:09:58.241Z,73.80
2023-11-29T04:15:06.955Z,74.66
2023-11-29T04:20:09.999Z,74.88
2023-11-29T04:25:13.063Z,74.55
2023-11-29T04:30:16.207Z,74.79
2023-11-29T04:35:19.123Z,75.38
2023-11-29T04:40:22.062Z,76.82
2023-11-29T04:45:25.019Z,76.89
2023-11-29T04:50:28.046Z,75.86
2023-11-29T04:55:31.104Z,76.50
2023-11-29T05:00:33.866Z,75.71
2023-11-29T05:05:37.322Z,77.32
2023-11-29T05:10:40.426Z,76.45
2023-11-29T05:15:49.372Z,77.48
2023-11-29T05:20:52.514Z,76.94
2023-11-29T05:25:55.247Z,78.95
2023-11-29T05:30:59.565Z,77.51
2023-11-29T05:36:02.319Z,75.42
2023-11-29T05:41:06.647Z,74.58
2023-11-29T05:46:09.704Z,74.15
2023-11-29T05:51:14.450Z,74.59
2023-11-29T05:56:17.427Z,74.11
2023-11-29T06:01:21.449Z,73.18
2023-11-29T06:06:24.345Z,73.58
2023-11-29T06:11:30.572Z,74.30
2023-11-29T06:16:35.106Z,74.39
2023-11-29T06:21:40.638Z,73.58
2023-11-29T06:26:46.496Z,73.00
2023-11-29T06:31:49.705Z,72.47
2023-11-29T06:36:52.896Z,72.19
2023-11-29T06:41:55.727Z,72.35
2023-11-29T06:47:01.655Z,74.12
2023-11-29T06:52:04.964Z,73.44
2023-11-29T06:57:07.757Z,74.29
2023-11-29T07:02:10.783Z,74.93
2023-11-29T07:07:13.871Z,75.55
2023-11-29T07:12:24.048Z,75.56
2023-11-29T07:17:27.680Z,74.96
2023-11-29T07:22:30.498Z,75.92
2023-11-29T07:27:34.266Z,73.98
2023-11-29T07:32:38.003Z,75.36
2023-11-29T07:37:41.035Z,75.26
2023-11-29T07:42:44.253Z,74.97
2023-11-29T07:47:47.185Z,75.47
2023-11-29T07:52:50.548Z,73.85
2023-11-29T07:57:53.725Z,73.17
2023-11-29T08:02:56.718Z,73.13
2023-11-29T08:07:59.785Z,73.44
2023-11-29T08:13:02.671Z,74.17
2023-11-29T08:18:05.974Z,72.41
2023-11-29T08:23:08.792Z,73.58
2023-11-29T08:28:11.933Z,74.57
2023-11-29T08:33:16.211Z,73.78
2023-11-29T08:38:21.659Z,73.42
2023-11-29T08:43:24.695Z,73.91
2023-11-29T08:48:27.741Z,74.18
2023-11-29T08:53:37.732Z,74.75
2023-11-29T08:58:44.016Z,74.84
2023-11-29T09:03:47.277Z,73.31
2023-11-29T09:08:51.305Z,72.21
2023-11-29T09:13:54.159Z,71.45
2023-11-29T09:18:57.221Z,72.30
2023-11-29T09:24:00.095Z,73.63
2023-11-29T09:29:03.634Z,72.96
2023-11-29T09:34:06.928Z,73.66
2023-11-29T09:39:14.441Z,74.61
2023-11-29T09:44:17.708Z,74.66
2023-11-29T09:49:21.809Z,73.99
2023-11-29T09:54:26.134Z,72.82
2023-11-29T09:59:29.078Z,74.56
2023-11-29T10:04:36.544Z,74.94
2023-11-29T10:09:40.412Z,75.10
2023-11-29T10:14:43.412Z,76.12
2023-11-29T10:19:47.905Z,76.85
2023-11-29T10:24:50.891Z,75.11
2023-11-29T10:29:54.369Z,76.86
2023-11-29T10:34:59.226Z,77.25
2023-11-29T10:40:04.047Z,76.43
2023-11-29T10:45:10.974Z,76.12
2023-11-29T10:50:16.670Z,75.01
2023-11-29T10:55:22.698Z,74.57
2023-11-29T11:00:30.138Z,75.85
2023-11-29T11:05:33.429Z,74.99
2023-11-29T11:10:37.096Z,74.90
2023-11-29T11:15:41.984Z,75.40
2023-11-29T11:20:50.596Z,75.34
2023-11-29T11:25:57.328Z,74.09
2023-11-29T11:31:03.923Z,75.21
2023-11-29T11:36:07.306Z,73.71
2023-11-29T11:41:10.228Z,73.93
2023-11-29T11:46:13.676Z,74.02
2023-11-29T11:51:21.822Z,74.94
2023-11-29T11:56:24.802Z,73.76
2023-11-29T12:01:30.638Z,74.47
2023-11-29T12:06:34.003Z,74.35
2023-11-29T12:11:38.453Z,74.66
2023-11-29T12:16:41.528Z,74.26
2023-11-29T12:21:44.683Z,73.66
2023-11-29T12:26:47.989Z,73.84
2023-11-29T12:31:51.086Z,74.11
2023-11-29T12:36:58.875Z,73.21
2023-11-29T12:42:02.248Z,74.23
2023-11-29T12:47:06.390Z,74.71
2023-11-29T12:52:09.396Z,74.97
2023-11-29T12:57:12.661Z,74.83
2023-11-29T13:02:15.799Z,76.05
2023-11-29T13:07:19.932Z,76.40
2023-11-29T13:12:22.865Z,76.89
2023-11-29T13:17:26.040Z,76.35
2023-11-29T13:22:29.026Z,75.93
2023-11-29T13:27:31.900Z,75.42
2023-11-29T13:32:34.762Z,76.32
2023-11-29T13:37:37.781Z,76.02
2023-11-29T13:42:40.950Z,75.93
2023-11-29T13:47:44.090Z,75.87
2023-11-29T13:52:47.305Z,74.79
2023-11-29T13:57:50.288Z,74.62
2023-11-29T14:02:53.768Z,75.09
2023-11-29T14:07:56.819Z,74.46
2023-11-29T14:12:59.489Z,74.51
2023-11-29T14:18:03.993Z,73.86
2023-11-29T14:23:06.726Z,73.98
2023-11-29T14:28:10.106Z,74.94
2023-11-29T14:33:13.421Z,75.04
2023-11-29T14:38:16.618Z,74.90
2023-11-29T14:43:19.746Z,75.69
2023-11-29T14:48:22.878Z,75.77
2023-11-29T14:53:25.919Z,75.19
2023-11-29T14:58:28.833Z,75.68
2023-11-29T15:03:31.727Z,75.48
2023-11-29T15:08:34.794Z,76.23
2023-11-29T15:13:42.146Z,76.49
2023-11-29T15:18:45.575Z,76.24
2023-11-29T15:23:48.483Z,77.04
2023-11-29T15:28:51.451Z,77.03
2023-11-29T15:33:54.556Z,76.89
2023-11-29T15:38:58.568Z,77.26
2023-11-29T15:44:01.681Z,77.28
2023-11-29T15:49:06.372Z,77.47
2023-11-29T15:54:09.175Z,77.90
2023-11-29T15:59:12.156Z,78.53
2023-11-29T16:04:14.928Z,78.32
2023-11-29T16:09:18.110Z,78.12
2023-11-29T16:14:21.433Z,77.77
2023-11-29T16:19:24.454Z,78.06
2023-11-29T16:24:27.371Z,78.39
2023-11-29T16:29:30.510Z,78.47
2023-11-29T16:34:33.308Z,78.60
2023-11-29T16:39:36.377Z,78.35
2023-11-29T16:44:39.849Z,78.28
2023-11-29T16:49:42.644Z,79.06
2023-11-29T16:54:45.882Z,79.01
2023-11-29T16:59:48.879Z,78.43
2023-11-29T17:04:52.172Z,77.64
2023-11-29T17:09:58.744Z,77.68
2023-11-29T17:15:01.600Z,78.23
2023-11-29T17:20:05.464Z,77.48
2023-11-29T17:25:09.416Z,77.75
2023-11-29T17:30:13.716Z,78.08
2023-11-29T17:35:17.580Z,77.88
2023-11-29T17:40:20.355Z,77.93
2023-11-29T17:45:24.341Z,78.77
2023-11-29T17:50:27.276Z,79.65
2023-11-29T17:55:30.291Z,82.87
2023-11-29T18:00:33.301Z,85.85
2023-11-29T18:05:37.056Z,88.53
2023-11-29T18:10:51.752Z,91.54
2023-11-29T18:15:55.650Z,92.82
2023-11-29T18:20:58.521Z,95.44
2023-11-29T18:26:04.981Z,95.84
2023-11-29T18:31:08.363Z,96.68
2023-11-29T18:36:11.579Z,97.03
2023-11-29T18:41:14.652Z,97.22
2023-11-29T18:46:17.688Z,96.23
2023-11-29T18:51:20.732Z,95.89
2023-11-29T18:56:23.721Z,96.21
2023-11-29T19:01:26.840Z,96.08
2023-11-29T19:06:29.602Z,95.56
2023-11-29T19:11:32.416Z,94.97
2023-11-29T19:16:35.800Z,93.89
2023-11-29T19:21:38.472Z,93.48
2023-11-29T19:26:41.624Z,93.19
2023-11-29T19:31:48.052Z,93.87
2023-11-29T19:36:51.391Z,93.43
2023-11-29T19:41:54.493Z,93.90
2023-11-29T19:47:07.189Z,92.46
2023-11-29T19:52:16.955Z,93.12
2023-11-29T19:57:20.611Z,94.12
2023-11-29T20:02:24.009Z,93.97
2023-11-29T20:07:27.409Z,94.52
2023-11-29T20:12:30.091Z,95.49
2023-11-29T20:17:33.391Z,94.23
2023-11-29T20:22:36.792Z,94.71
2023-11-29T20:27:43.054Z,95.74
2023-11-29T20:32:45.768Z,96.75
2023-11-29T20:37:48.618Z,96.97
2023-11-29T20:42:52.455Z,97.09
2023-11-29T20:47:55.477Z,97.14
2023-11-29T20:53:05.715Z,97.64
2023-11-29T20:58:18.550Z,96.71
2023-11-29T21:03:21.983Z,96.94
2023-11-29T21:08:25.122Z,96.00
2023-11-29T21:13:28.295Z,95.81
2023-11-29T21:18:31.498Z,97.54
2023-11-29T21:23:34.420Z,95.72
2023-11-29T21:28:39.308Z,95.49
2023-11-29T21:33:42.303Z,95.62
2023-11-29T21:38:45.439Z,95.84
2023-11-29T21:43:48.394Z,96.54
2023-11-29T21:48:51.372Z,97.08
2023-11-29T21:53:54.378Z,95.91
2023-11-29T21:58:57.107Z,95.97
2023-11-29T22:04:00.253Z,96.09
2023-11-29T22:09:03.115Z,97.12
2023-11-29T22:14:06.025Z,97.13
2023-11-29T22:19:10.330Z,96.77
2023-11-29T22:24:13.067Z,97.46
2023-11-29T22:29:16.190Z,98.05
2023-11-29T22:34:19.258Z,99.60
2023-11-29T22:39:22.336Z,98.55
2023-11-29T22:44:25.668Z,98.84
2023-11-29T22:49:28.899Z,98.90
2023-11-29T22:54:32.206Z,99.02
2023-11-29T22:59:35.028Z,99.31
2023-11-29T23:04:38.093Z,99.76
2023-11-29T23:09:41.914Z,99.45
2023-11-29T23:14:45.021Z,99.11
2023-11-29T23:19:48.921Z,99.97
2023-11-29T23:24:51.984Z,99.68
2023-11-29T23:29:54.783Z,98.71
2023-11-29T23:34:57.908Z,98.77
2023-11-29T23:40:00.728Z,97.96
2023-11-29T23:45:04.357Z,96.89
2023-11-29T23:50:09.422Z,98.04
2023-11-29T23:55:12.304Z,97.32
